sensor_id;sensor_type;location;lat;lon;timestamp;P1;durP1;ratioP1;P2;durP2;ratioP2
8791;SDS011;4432;50.890;4.744;2023-01-10T00:00:50;4.73;;;1.53;;
8791;SDS011;4432;50.890;4.744;2023-01-10T00:03:16;13.40;;;2.07;;
8791;SDS011;4432;50.890;4.744;2023-01-10T00:05:43;10.23;;;2.10;;
8791;SDS011;4432;50.890;4.744;2023-01-10T00:08:10;9.43;;;1.80;;
8791;SDS011;4432;50.890;4.744;2023-01-10T00:10:39;3.43;;;1.67;;
8791;SDS011;4432;50.890;4.744;2023-01-10T00:13:05;6.50;;;2.10;;
8791;SDS011;4432;50.890;4.744;2023-01-10T00:15:52;7.30;;;1.47;;
8791;SDS011;4432;50.890;4.744;2023-01-10T00:18:20;9.87;;;2.57;;
8791;SDS011;4432;50.890;4.744;2023-01-10T00:20:46;1.90;;;1.33;;
8791;SDS011;4432;50.890;4.744;2023-01-10T00:23:13;3.77;;;1.97;;
8791;SDS011;4432;50.890;4.744;2023-01-10T00:25:40;9.40;;;2.40;;
8791;SDS011;4432;50.890;4.744;2023-01-10T00:28:06;8.07;;;2.20;;
8791;SDS011;4432;50.890;4.744;2023-01-10T00:30:46;5.37;;;2.10;;
8791;SDS011;4432;50.890;4.744;2023-01-10T00:33:13;5.23;;;1.90;;
8791;SDS011;4432;50.890;4.744;2023-01-10T00:35:45;11.77;;;3.10;;
8791;SDS011;4432;50.890;4.744;2023-01-10T00:38:12;2.57;;;1.57;;
8791;SDS011;4432;50.890;4.744;2023-01-10T00:40:39;5.60;;;2.10;;
8791;SDS011;4432;50.890;4.744;2023-01-10T00:43:05;7.33;;;2.20;;
8791;SDS011;4432;50.890;4.744;2023-01-10T00:45:51;4.50;;;1.90;;
8791;SDS011;4432;50.890;4.744;2023-01-10T00:48:17;9.83;;;1.80;;
8791;SDS011;4432;50.890;4.744;2023-01-10T00:50:43;3.17;;;1.47;;
8791;SDS011;4432;50.890;4.744;2023-01-10T00:53:10;10.27;;;2.73;;
8791;SDS011;4432;50.890;4.744;2023-01-10T00:55:36;8.50;;;2.53;;
8791;SDS011;4432;50.890;4.744;2023-01-10T00:58:02;4.37;;;2.00;;
8791;SDS011;4432;50.890;4.744;2023-01-10T01:00:29;10.57;;;1.70;;
8791;SDS011;4432;50.890;4.744;2023-01-10T01:02:54;9.07;;;1.80;;
8791;SDS011;4432;50.890;4.744;2023-01-10T01:05:20;9.90;;;1.73;;
8791;SDS011;4432;50.890;4.744;2023-01-10T01:07:50;5.67;;;2.00;;
8791;SDS011;4432;50.890;4.744;2023-01-10T01:10:16;7.17;;;1.73;;
8791;SDS011;4432;50.890;4.744;2023-01-10T01:12:52;6.93;;;2.03;;
8791;SDS011;4432;50.890;4.744;2023-01-10T01:15:19;15.60;;;1.83;;
8791;SDS011;4432;50.890;4.744;2023-01-10T01:17:46;10.73;;;1.80;;
8791;SDS011;4432;50.890;4.744;2023-01-10T01:20:12;8.20;;;1.80;;
8791;SDS011;4432;50.890;4.744;2023-01-10T01:22:38;2.00;;;1.60;;
8791;SDS011;4432;50.890;4.744;2023-01-10T01:25:04;3.23;;;1.50;;
8791;SDS011;4432;50.890;4.744;2023-01-10T01:27:30;7.33;;;1.70;;
8791;SDS011;4432;50.890;4.744;2023-01-10T01:29:56;7.13;;;1.70;;
8791;SDS011;4432;50.890;4.744;2023-01-10T01:32:22;4.67;;;1.50;;
8791;SDS011;4432;50.890;4.744;2023-01-10T01:34:48;11.43;;;2.23;;
8791;SDS011;4432;50.890;4.744;2023-01-10T01:37:14;14.30;;;1.90;;
8791;SDS011;4432;50.890;4.744;2023-01-10T01:39:43;11.70;;;2.23;;
8791;SDS011;4432;50.890;4.744;2023-01-10T01:42:24;6.43;;;1.80;;
8791;SDS011;4432;50.890;4.744;2023-01-10T01:47:32;4.20;;;1.40;;
8791;SDS011;4432;50.890;4.744;2023-01-10T01:53:03;5.77;;;1.80;;
8791;SDS011;4432;50.890;4.744;2023-01-10T01:55:34;11.23;;;2.00;;
8791;SDS011;4432;50.890;4.744;2023-01-10T01:58:02;3.97;;;2.03;;
8791;SDS011;4432;50.890;4.744;2023-01-10T02:00:33;4.53;;;1.33;;
8791;SDS011;4432;50.890;4.744;2023-01-10T02:02:59;15.43;;;2.27;;
8791;SDS011;4432;50.890;4.744;2023-01-10T02:05:26;3.17;;;1.47;;
8791;SDS011;4432;50.890;4.744;2023-01-10T02:07:55;9.97;;;2.30;;
8791;SDS011;4432;50.890;4.744;2023-01-10T02:10:29;6.47;;;2.17;;
8791;SDS011;4432;50.890;4.744;2023-01-10T02:12:57;5.57;;;2.13;;
8791;SDS011;4432;50.890;4.744;2023-01-10T02:15:26;7.70;;;1.90;;
8791;SDS011;4432;50.890;4.744;2023-01-10T02:17:53;10.13;;;1.53;;
8791;SDS011;4432;50.890;4.744;2023-01-10T02:20:20;10.50;;;1.90;;
8791;SDS011;4432;50.890;4.744;2023-01-10T02:31:56;7.97;;;1.67;;
8791;SDS011;4432;50.890;4.744;2023-01-10T02:39:56;4.80;;;1.40;;
8791;SDS011;4432;50.890;4.744;2023-01-10T02:45:13;8.17;;;1.83;;
8791;SDS011;4432;50.890;4.744;2023-01-10T02:47:45;2.67;;;1.60;;
8791;SDS011;4432;50.890;4.744;2023-01-10T02:52:55;8.67;;;1.50;;
8791;SDS011;4432;50.890;4.744;2023-01-10T02:55:23;10.40;;;1.73;;
8791;SDS011;4432;50.890;4.744;2023-01-10T03:03:35;7.00;;;1.47;;
8791;SDS011;4432;50.890;4.744;2023-01-10T03:08:55;12.37;;;1.87;;
8791;SDS011;4432;50.890;4.744;2023-01-10T03:11:28;4.97;;;1.47;;
8791;SDS011;4432;50.890;4.744;2023-01-10T03:14:23;6.43;;;1.57;;
8791;SDS011;4432;50.890;4.744;2023-01-10T03:16:53;9.63;;;2.20;;
8791;SDS011;4432;50.890;4.744;2023-01-10T03:19:26;9.90;;;2.10;;
8791;SDS011;4432;50.890;4.744;2023-01-10T03:21:58;4.63;;;1.30;;
8791;SDS011;4432;50.890;4.744;2023-01-10T03:24:31;12.13;;;2.03;;
8791;SDS011;4432;50.890;4.744;2023-01-10T03:27:05;17.57;;;1.80;;
8791;SDS011;4432;50.890;4.744;2023-01-10T03:29:41;6.87;;;1.77;;
8791;SDS011;4432;50.890;4.744;2023-01-10T03:32:25;7.27;;;2.33;;
8791;SDS011;4432;50.890;4.744;2023-01-10T03:34:54;5.63;;;1.90;;
8791;SDS011;4432;50.890;4.744;2023-01-10T03:37:33;14.37;;;2.10;;
8791;SDS011;4432;50.890;4.744;2023-01-10T03:43:09;12.53;;;1.97;;
8791;SDS011;4432;50.890;4.744;2023-01-10T03:46:20;2.53;;;1.70;;
8791;SDS011;4432;50.890;4.744;2023-01-10T03:48:52;15.23;;;2.50;;
8791;SDS011;4432;50.890;4.744;2023-01-10T03:51:19;9.03;;;1.90;;
8791;SDS011;4432;50.890;4.744;2023-01-10T03:53:45;18.07;;;2.10;;
8791;SDS011;4432;50.890;4.744;2023-01-10T03:56:14;6.60;;;1.80;;
8791;SDS011;4432;50.890;4.744;2023-01-10T03:58:40;13.87;;;2.43;;
8791;SDS011;4432;50.890;4.744;2023-01-10T04:01:06;10.27;;;2.20;;
8791;SDS011;4432;50.890;4.744;2023-01-10T04:03:32;7.23;;;1.50;;
8791;SDS011;4432;50.890;4.744;2023-01-10T04:05:58;8.00;;;1.80;;
8791;SDS011;4432;50.890;4.744;2023-01-10T04:08:23;8.57;;;1.80;;
8791;SDS011;4432;50.890;4.744;2023-01-10T04:10:49;9.03;;;2.27;;
8791;SDS011;4432;50.890;4.744;2023-01-10T04:13:15;4.27;;;1.70;;
8791;SDS011;4432;50.890;4.744;2023-01-10T04:15:41;14.33;;;1.73;;
8791;SDS011;4432;50.890;4.744;2023-01-10T04:18:07;6.03;;;2.27;;
8791;SDS011;4432;50.890;4.744;2023-01-10T04:20:32;19.07;;;2.23;;
8791;SDS011;4432;50.890;4.744;2023-01-10T04:22:58;12.63;;;1.40;;
8791;SDS011;4432;50.890;4.744;2023-01-10T04:25:24;4.00;;;1.60;;
8791;SDS011;4432;50.890;4.744;2023-01-10T04:27:50;12.73;;;1.77;;
8791;SDS011;4432;50.890;4.744;2023-01-10T04:30:16;6.17;;;1.67;;
8791;SDS011;4432;50.890;4.744;2023-01-10T04:32:43;14.77;;;1.60;;
8791;SDS011;4432;50.890;4.744;2023-01-10T04:35:09;9.50;;;1.90;;
8791;SDS011;4432;50.890;4.744;2023-01-10T04:37:35;8.80;;;1.63;;
8791;SDS011;4432;50.890;4.744;2023-01-10T04:40:02;5.87;;;1.80;;
8791;SDS011;4432;50.890;4.744;2023-01-10T04:42:28;10.57;;;2.00;;
8791;SDS011;4432;50.890;4.744;2023-01-10T04:44:54;10.33;;;1.90;;
8791;SDS011;4432;50.890;4.744;2023-01-10T04:47:20;5.63;;;1.80;;
8791;SDS011;4432;50.890;4.744;2023-01-10T04:49:45;7.57;;;1.93;;
8791;SDS011;4432;50.890;4.744;2023-01-10T04:52:11;13.03;;;2.73;;
8791;SDS011;4432;50.890;4.744;2023-01-10T04:54:37;13.93;;;2.13;;
8791;SDS011;4432;50.890;4.744;2023-01-10T04:57:03;10.90;;;1.70;;
8791;SDS011;4432;50.890;4.744;2023-01-10T04:59:31;5.63;;;1.33;;
8791;SDS011;4432;50.890;4.744;2023-01-10T05:01:57;17.10;;;2.30;;
8791;SDS011;4432;50.890;4.744;2023-01-10T05:04:23;3.17;;;1.10;;
8791;SDS011;4432;50.890;4.744;2023-01-10T05:06:49;12.23;;;1.77;;
8791;SDS011;4432;50.890;4.744;2023-01-10T05:09:15;5.50;;;1.60;;
8791;SDS011;4432;50.890;4.744;2023-01-10T05:11:41;11.50;;;2.30;;
8791;SDS011;4432;50.890;4.744;2023-01-10T05:14:07;10.50;;;1.80;;
8791;SDS011;4432;50.890;4.744;2023-01-10T05:16:33;4.77;;;1.77;;
8791;SDS011;4432;50.890;4.744;2023-01-10T05:18:59;7.60;;;2.00;;
8791;SDS011;4432;50.890;4.744;2023-01-10T05:21:25;11.60;;;1.63;;
8791;SDS011;4432;50.890;4.744;2023-01-10T05:23:50;10.73;;;1.53;;
8791;SDS011;4432;50.890;4.744;2023-01-10T05:26:17;9.73;;;2.00;;
8791;SDS011;4432;50.890;4.744;2023-01-10T05:28:45;8.20;;;1.70;;
8791;SDS011;4432;50.890;4.744;2023-01-10T05:31:12;7.07;;;1.83;;
8791;SDS011;4432;50.890;4.744;2023-01-10T05:33:48;6.37;;;1.43;;
8791;SDS011;4432;50.890;4.744;2023-01-10T05:36:15;9.60;;;1.60;;
8791;SDS011;4432;50.890;4.744;2023-01-10T05:38:42;15.77;;;2.10;;
8791;SDS011;4432;50.890;4.744;2023-01-10T05:41:08;5.97;;;1.30;;
8791;SDS011;4432;50.890;4.744;2023-01-10T05:43:34;10.10;;;2.30;;
8791;SDS011;4432;50.890;4.744;2023-01-10T05:46:00;16.50;;;1.97;;
8791;SDS011;4432;50.890;4.744;2023-01-10T05:48:26;11.67;;;1.63;;
8791;SDS011;4432;50.890;4.744;2023-01-10T05:50:52;5.33;;;1.43;;
8791;SDS011;4432;50.890;4.744;2023-01-10T05:53:18;17.47;;;2.17;;
8791;SDS011;4432;50.890;4.744;2023-01-10T05:55:51;12.60;;;1.40;;
8791;SDS011;4432;50.890;4.744;2023-01-10T05:58:18;4.77;;;1.53;;
8791;SDS011;4432;50.890;4.744;2023-01-10T06:00:44;15.97;;;2.03;;
8791;SDS011;4432;50.890;4.744;2023-01-10T06:03:10;9.60;;;1.67;;
8791;SDS011;4432;50.890;4.744;2023-01-10T06:05:36;5.80;;;1.33;;
8791;SDS011;4432;50.890;4.744;2023-01-10T06:08:02;5.43;;;1.97;;
8791;SDS011;4432;50.890;4.744;2023-01-10T06:10:27;7.57;;;1.63;;
8791;SDS011;4432;50.890;4.744;2023-01-10T06:12:53;10.97;;;1.83;;
8791;SDS011;4432;50.890;4.744;2023-01-10T06:15:20;3.33;;;1.50;;
8791;SDS011;4432;50.890;4.744;2023-01-10T06:17:46;10.93;;;2.10;;
8791;SDS011;4432;50.890;4.744;2023-01-10T06:20:12;10.07;;;1.23;;
8791;SDS011;4432;50.890;4.744;2023-01-10T06:22:41;13.03;;;1.63;;
8791;SDS011;4432;50.890;4.744;2023-01-10T06:25:10;9.00;;;1.90;;
8791;SDS011;4432;50.890;4.744;2023-01-10T06:27:38;7.73;;;1.83;;
8791;SDS011;4432;50.890;4.744;2023-01-10T06:30:06;9.10;;;2.80;;
8791;SDS011;4432;50.890;4.744;2023-01-10T06:32:33;8.50;;;1.70;;
8791;SDS011;4432;50.890;4.744;2023-01-10T06:34:59;7.03;;;1.50;;
8791;SDS011;4432;50.890;4.744;2023-01-10T06:37:25;8.03;;;2.03;;
8791;SDS011;4432;50.890;4.744;2023-01-10T06:39:50;16.87;;;2.17;;
8791;SDS011;4432;50.890;4.744;2023-01-10T06:42:16;11.80;;;1.77;;
8791;SDS011;4432;50.890;4.744;2023-01-10T06:44:42;7.67;;;2.27;;
8791;SDS011;4432;50.890;4.744;2023-01-10T06:47:08;11.47;;;1.83;;
8791;SDS011;4432;50.890;4.744;2023-01-10T06:49:34;8.97;;;2.20;;
8791;SDS011;4432;50.890;4.744;2023-01-10T06:51:59;15.17;;;1.73;;
8791;SDS011;4432;50.890;4.744;2023-01-10T06:54:25;5.03;;;1.50;;
8791;SDS011;4432;50.890;4.744;2023-01-10T06:56:51;6.43;;;1.93;;
8791;SDS011;4432;50.890;4.744;2023-01-10T06:59:17;13.47;;;2.43;;
8791;SDS011;4432;50.890;4.744;2023-01-10T07:01:42;13.40;;;1.83;;
8791;SDS011;4432;50.890;4.744;2023-01-10T07:04:08;13.73;;;1.80;;
8791;SDS011;4432;50.890;4.744;2023-01-10T07:06:37;16.13;;;2.13;;
8791;SDS011;4432;50.890;4.744;2023-01-10T07:09:04;4.30;;;1.77;;
8791;SDS011;4432;50.890;4.744;2023-01-10T07:11:31;10.23;;;1.77;;
8791;SDS011;4432;50.890;4.744;2023-01-10T07:13:57;8.87;;;1.60;;
8791;SDS011;4432;50.890;4.744;2023-01-10T07:16:23;2.70;;;1.23;;
8791;SDS011;4432;50.890;4.744;2023-01-10T07:18:49;10.77;;;1.80;;
8791;SDS011;4432;50.890;4.744;2023-01-10T07:21:14;9.87;;;1.97;;
8791;SDS011;4432;50.890;4.744;2023-01-10T07:23:42;12.77;;;1.87;;
8791;SDS011;4432;50.890;4.744;2023-01-10T07:26:08;4.87;;;1.63;;
8791;SDS011;4432;50.890;4.744;2023-01-10T07:28:35;12.07;;;2.60;;
8791;SDS011;4432;50.890;4.744;2023-01-10T07:31:02;6.97;;;1.80;;
8791;SDS011;4432;50.890;4.744;2023-01-10T07:33:29;9.10;;;1.60;;
8791;SDS011;4432;50.890;4.744;2023-01-10T07:35:56;5.53;;;1.83;;
8791;SDS011;4432;50.890;4.744;2023-01-10T07:38:24;7.93;;;1.40;;
8791;SDS011;4432;50.890;4.744;2023-01-10T07:40:49;8.93;;;1.87;;
8791;SDS011;4432;50.890;4.744;2023-01-10T07:43:15;11.47;;;2.23;;
8791;SDS011;4432;50.890;4.744;2023-01-10T07:45:42;13.60;;;1.97;;
8791;SDS011;4432;50.890;4.744;2023-01-10T07:48:08;9.27;;;1.70;;
8791;SDS011;4432;50.890;4.744;2023-01-10T07:50:34;6.90;;;1.53;;
8791;SDS011;4432;50.890;4.744;2023-01-10T07:53:01;7.67;;;1.63;;
8791;SDS011;4432;50.890;4.744;2023-01-10T07:55:29;11.00;;;1.60;;
8791;SDS011;4432;50.890;4.744;2023-01-10T07:57:58;6.13;;;2.10;;
8791;SDS011;4432;50.890;4.744;2023-01-10T08:00:24;11.53;;;2.23;;
8791;SDS011;4432;50.890;4.744;2023-01-10T08:02:54;4.40;;;1.90;;
8791;SDS011;4432;50.890;4.744;2023-01-10T08:05:20;6.03;;;2.03;;
8791;SDS011;4432;50.890;4.744;2023-01-10T08:07:47;5.40;;;1.50;;
8791;SDS011;4432;50.890;4.744;2023-01-10T08:10:13;13.60;;;2.53;;
8791;SDS011;4432;50.890;4.744;2023-01-10T08:12:39;13.00;;;2.03;;
8791;SDS011;4432;50.890;4.744;2023-01-10T08:15:05;9.60;;;1.93;;
8791;SDS011;4432;50.890;4.744;2023-01-10T08:17:32;12.43;;;1.80;;
8791;SDS011;4432;50.890;4.744;2023-01-10T08:19:58;5.23;;;2.10;;
8791;SDS011;4432;50.890;4.744;2023-01-10T08:22:24;11.63;;;2.27;;
8791;SDS011;4432;50.890;4.744;2023-01-10T08:24:50;8.20;;;2.30;;
8791;SDS011;4432;50.890;4.744;2023-01-10T08:27:16;13.23;;;2.17;;
8791;SDS011;4432;50.890;4.744;2023-01-10T08:29:41;18.00;;;1.73;;
8791;SDS011;4432;50.890;4.744;2023-01-10T08:32:07;14.47;;;3.13;;
8791;SDS011;4432;50.890;4.744;2023-01-10T08:34:33;10.90;;;2.17;;
8791;SDS011;4432;50.890;4.744;2023-01-10T08:36:59;3.03;;;1.73;;
8791;SDS011;4432;50.890;4.744;2023-01-10T08:39:27;11.30;;;2.33;;
8791;SDS011;4432;50.890;4.744;2023-01-10T08:41:54;13.77;;;2.33;;
8791;SDS011;4432;50.890;4.744;2023-01-10T08:44:20;8.77;;;2.10;;
8791;SDS011;4432;50.890;4.744;2023-01-10T08:46:47;8.83;;;1.70;;
8791;SDS011;4432;50.890;4.744;2023-01-10T08:49:13;7.90;;;1.87;;
8791;SDS011;4432;50.890;4.744;2023-01-10T08:51:39;7.67;;;1.70;;
8791;SDS011;4432;50.890;4.744;2023-01-10T08:54:05;6.80;;;2.20;;
8791;SDS011;4432;50.890;4.744;2023-01-10T08:56:31;11.70;;;2.33;;
8791;SDS011;4432;50.890;4.744;2023-01-10T08:58:57;8.07;;;2.17;;
8791;SDS011;4432;50.890;4.744;2023-01-10T09:01:22;10.73;;;2.07;;
8791;SDS011;4432;50.890;4.744;2023-01-10T09:03:48;10.87;;;1.70;;
8791;SDS011;4432;50.890;4.744;2023-01-10T09:06:14;6.17;;;2.37;;
8791;SDS011;4432;50.890;4.744;2023-01-10T09:08:40;9.20;;;1.37;;
8791;SDS011;4432;50.890;4.744;2023-01-10T09:11:06;7.27;;;1.87;;
8791;SDS011;4432;50.890;4.744;2023-01-10T09:13:32;4.80;;;1.70;;
8791;SDS011;4432;50.890;4.744;2023-01-10T09:15:57;6.10;;;1.83;;
8791;SDS011;4432;50.890;4.744;2023-01-10T09:18:24;6.80;;;2.13;;
8791;SDS011;4432;50.890;4.744;2023-01-10T09:20:50;9.27;;;1.97;;
8791;SDS011;4432;50.890;4.744;2023-01-10T09:23:17;4.13;;;1.23;;
8791;SDS011;4432;50.890;4.744;2023-01-10T09:25:46;8.07;;;2.17;;
8791;SDS011;4432;50.890;4.744;2023-01-10T09:28:14;14.57;;;2.50;;
8791;SDS011;4432;50.890;4.744;2023-01-10T09:30:40;9.57;;;2.20;;
8791;SDS011;4432;50.890;4.744;2023-01-10T09:33:07;11.30;;;1.93;;
8791;SDS011;4432;50.890;4.744;2023-01-10T09:35:37;11.83;;;1.90;;
8791;SDS011;4432;50.890;4.744;2023-01-10T09:38:05;6.60;;;1.47;;
8791;SDS011;4432;50.890;4.744;2023-01-10T09:53:23;13.97;;;1.90;;
8791;SDS011;4432;50.890;4.744;2023-01-10T09:55:55;5.47;;;1.87;;
8791;SDS011;4432;50.890;4.744;2023-01-10T09:58:25;10.57;;;2.13;;
8791;SDS011;4432;50.890;4.744;2023-01-10T10:01:03;6.27;;;1.63;;
8791;SDS011;4432;50.890;4.744;2023-01-10T10:06:28;9.63;;;2.07;;
8791;SDS011;4432;50.890;4.744;2023-01-10T10:08:54;7.07;;;1.97;;
8791;SDS011;4432;50.890;4.744;2023-01-10T10:22:19;12.43;;;1.83;;
8791;SDS011;4432;50.890;4.744;2023-01-10T10:38:42;8.50;;;2.30;;
8791;SDS011;4432;50.890;4.744;2023-01-10T10:41:54;12.87;;;2.20;;
8791;SDS011;4432;50.890;4.744;2023-01-10T10:44:17;8.47;;;1.67;;
8791;SDS011;4432;50.890;4.744;2023-01-10T10:46:46;8.03;;;1.87;;
8791;SDS011;4432;50.890;4.744;2023-01-10T10:49:31;8.03;;;1.97;;
8791;SDS011;4432;50.890;4.744;2023-01-10T10:51:57;6.17;;;1.93;;
8791;SDS011;4432;50.890;4.744;2023-01-10T10:54:26;7.57;;;1.70;;
8791;SDS011;4432;50.890;4.744;2023-01-10T10:56:52;12.80;;;2.43;;
8791;SDS011;4432;50.890;4.744;2023-01-10T10:59:20;8.63;;;1.90;;
8791;SDS011;4432;50.890;4.744;2023-01-10T11:01:46;8.53;;;2.90;;
8791;SDS011;4432;50.890;4.744;2023-01-10T11:04:16;6.27;;;2.10;;
8791;SDS011;4432;50.890;4.744;2023-01-10T11:06:45;8.07;;;2.20;;
8791;SDS011;4432;50.890;4.744;2023-01-10T11:09:14;16.90;;;2.67;;
8791;SDS011;4432;50.890;4.744;2023-01-10T11:11:55;12.37;;;2.30;;
8791;SDS011;4432;50.890;4.744;2023-01-10T11:14:43;4.13;;;1.80;;
8791;SDS011;4432;50.890;4.744;2023-01-10T11:17:32;5.83;;;1.97;;
8791;SDS011;4432;50.890;4.744;2023-01-10T11:20:05;9.40;;;2.00;;
8791;SDS011;4432;50.890;4.744;2023-01-10T11:22:48;5.27;;;2.00;;
8791;SDS011;4432;50.890;4.744;2023-01-10T11:25:18;3.80;;;1.50;;
8791;SDS011;4432;50.890;4.744;2023-01-10T11:27:49;7.53;;;1.50;;
8791;SDS011;4432;50.890;4.744;2023-01-10T11:30:25;9.27;;;1.90;;
8791;SDS011;4432;50.890;4.744;2023-01-10T11:32:59;11.40;;;2.13;;
8791;SDS011;4432;50.890;4.744;2023-01-10T11:35:28;5.13;;;2.37;;
8791;SDS011;4432;50.890;4.744;2023-01-10T11:41:03;8.07;;;1.93;;
8791;SDS011;4432;50.890;4.744;2023-01-10T11:46:02;10.67;;;2.00;;
8791;SDS011;4432;50.890;4.744;2023-01-10T11:48:44;19.10;;;2.53;;
8791;SDS011;4432;50.890;4.744;2023-01-10T11:51:27;6.17;;;1.47;;
8791;SDS011;4432;50.890;4.744;2023-01-10T11:57:00;6.33;;;1.50;;
8791;SDS011;4432;50.890;4.744;2023-01-10T11:59:51;7.27;;;2.00;;
8791;SDS011;4432;50.890;4.744;2023-01-10T12:02:23;11.57;;;2.37;;
8791;SDS011;4432;50.890;4.744;2023-01-10T12:04:51;8.23;;;1.83;;
8791;SDS011;4432;50.890;4.744;2023-01-10T12:07:20;10.27;;;1.80;;
8791;SDS011;4432;50.890;4.744;2023-01-10T12:09:54;8.33;;;2.20;;
8791;SDS011;4432;50.890;4.744;2023-01-10T12:12:31;11.60;;;1.90;;
8791;SDS011;4432;50.890;4.744;2023-01-10T12:15:00;9.80;;;1.80;;
8791;SDS011;4432;50.890;4.744;2023-01-10T12:17:46;10.47;;;2.13;;
8791;SDS011;4432;50.890;4.744;2023-01-10T12:20:13;6.90;;;2.33;;
8791;SDS011;4432;50.890;4.744;2023-01-10T12:22:40;5.30;;;1.97;;
8791;SDS011;4432;50.890;4.744;2023-01-10T12:25:19;8.83;;;1.80;;
8791;SDS011;4432;50.890;4.744;2023-01-10T12:27:49;6.53;;;1.60;;
8791;SDS011;4432;50.890;4.744;2023-01-10T12:30:16;12.40;;;2.20;;
8791;SDS011;4432;50.890;4.744;2023-01-10T12:33:03;4.03;;;1.70;;
8791;SDS011;4432;50.890;4.744;2023-01-10T12:35:37;8.23;;;2.03;;
8791;SDS011;4432;50.890;4.744;2023-01-10T12:41:14;6.60;;;1.40;;
8791;SDS011;4432;50.890;4.744;2023-01-10T12:44:27;4.47;;;1.63;;
8791;SDS011;4432;50.890;4.744;2023-01-10T12:47:00;10.57;;;1.97;;
8791;SDS011;4432;50.890;4.744;2023-01-10T12:52:13;7.57;;;1.40;;
8791;SDS011;4432;50.890;4.744;2023-01-10T12:54:51;8.17;;;1.53;;
8791;SDS011;4432;50.890;4.744;2023-01-10T12:57:29;6.23;;;2.07;;
8791;SDS011;4432;50.890;4.744;2023-01-10T13:00:00;7.00;;;1.73;;
8791;SDS011;4432;50.890;4.744;2023-01-10T13:02:32;7.03;;;1.97;;
8791;SDS011;4432;50.890;4.744;2023-01-10T13:05:03;7.40;;;2.13;;
8791;SDS011;4432;50.890;4.744;2023-01-10T13:07:31;4.00;;;1.57;;
8791;SDS011;4432;50.890;4.744;2023-01-10T13:10:02;14.60;;;2.27;;
8791;SDS011;4432;50.890;4.744;2023-01-10T13:12:35;3.57;;;1.10;;
8791;SDS011;4432;50.890;4.744;2023-01-10T13:17:44;5.77;;;2.03;;
8791;SDS011;4432;50.890;4.744;2023-01-10T13:20:25;12.57;;;2.27;;
8791;SDS011;4432;50.890;4.744;2023-01-10T13:22:58;6.17;;;1.63;;
8791;SDS011;4432;50.890;4.744;2023-01-10T13:25:29;11.53;;;2.00;;
8791;SDS011;4432;50.890;4.744;2023-01-10T13:28:06;6.87;;;2.07;;
8791;SDS011;4432;50.890;4.744;2023-01-10T13:30:41;7.13;;;1.80;;
8791;SDS011;4432;50.890;4.744;2023-01-10T13:35:47;7.60;;;1.60;;
8791;SDS011;4432;50.890;4.744;2023-01-10T13:38:25;12.03;;;2.23;;
8791;SDS011;4432;50.890;4.744;2023-01-10T13:56:27;3.07;;;1.53;;
8791;SDS011;4432;50.890;4.744;2023-01-10T14:01:26;8.90;;;1.90;;
8791;SDS011;4432;50.890;4.744;2023-01-10T14:04:44;7.50;;;1.63;;
8791;SDS011;4432;50.890;4.744;2023-01-10T14:07:28;4.57;;;1.60;;
8791;SDS011;4432;50.890;4.744;2023-01-10T14:09:58;4.03;;;1.80;;
8791;SDS011;4432;50.890;4.744;2023-01-10T14:12:47;4.67;;;1.77;;
8791;SDS011;4432;50.890;4.744;2023-01-10T14:15:21;5.03;;;1.13;;
8791;SDS011;4432;50.890;4.744;2023-01-10T14:17:59;3.37;;;1.20;;
8791;SDS011;4432;50.890;4.744;2023-01-10T14:20:40;6.90;;;2.13;;
8791;SDS011;4432;50.890;4.744;2023-01-10T14:23:17;3.00;;;1.43;;
8791;SDS011;4432;50.890;4.744;2023-01-10T14:25:46;7.60;;;1.83;;
8791;SDS011;4432;50.890;4.744;2023-01-10T14:28:21;5.23;;;1.40;;
8791;SDS011;4432;50.890;4.744;2023-01-10T14:31:11;2.40;;;1.43;;
8791;SDS011;4432;50.890;4.744;2023-01-10T14:33:43;2.83;;;1.37;;
8791;SDS011;4432;50.890;4.744;2023-01-10T14:36:23;2.83;;;1.03;;
8791;SDS011;4432;50.890;4.744;2023-01-10T14:38:59;2.63;;;1.17;;
8791;SDS011;4432;50.890;4.744;2023-01-10T14:41:45;5.00;;;1.67;;
8791;SDS011;4432;50.890;4.744;2023-01-10T14:44:17;2.40;;;1.00;;
8791;SDS011;4432;50.890;4.744;2023-01-10T14:47:24;5.23;;;1.40;;
8791;SDS011;4432;50.890;4.744;2023-01-10T14:49:58;2.27;;;1.20;;
8791;SDS011;4432;50.890;4.744;2023-01-10T14:52:28;1.23;;;1.13;;
8791;SDS011;4432;50.890;4.744;2023-01-10T14:57:32;5.60;;;1.20;;
8791;SDS011;4432;50.890;4.744;2023-01-10T15:00:03;1.00;;;0.90;;
8791;SDS011;4432;50.890;4.744;2023-01-10T15:02:37;4.50;;;1.20;;
8791;SDS011;4432;50.890;4.744;2023-01-10T15:05:17;1.60;;;0.83;;
8791;SDS011;4432;50.890;4.744;2023-01-10T15:07:44;1.20;;;1.10;;
8791;SDS011;4432;50.890;4.744;2023-01-10T15:12:53;0.83;;;0.83;;
8791;SDS011;4432;50.890;4.744;2023-01-10T15:15:42;4.83;;;1.00;;
8791;SDS011;4432;50.890;4.744;2023-01-10T15:21:03;4.47;;;1.07;;
8791;SDS011;4432;50.890;4.744;2023-01-10T15:23:34;2.07;;;0.87;;
8791;SDS011;4432;50.890;4.744;2023-01-10T15:26:02;3.63;;;1.20;;
8791;SDS011;4432;50.890;4.744;2023-01-10T15:28:41;3.67;;;1.23;;
8791;SDS011;4432;50.890;4.744;2023-01-10T15:31:12;0.80;;;0.80;;
8791;SDS011;4432;50.890;4.744;2023-01-10T15:33:41;2.73;;;0.70;;
8791;SDS011;4432;50.890;4.744;2023-01-10T15:36:13;0.60;;;0.60;;
8791;SDS011;4432;50.890;4.744;2023-01-10T15:38:42;0.67;;;0.67;;
8791;SDS011;4432;50.890;4.744;2023-01-10T15:41:14;0.80;;;0.80;;
8791;SDS011;4432;50.890;4.744;2023-01-10T15:43:43;0.70;;;0.70;;
8791;SDS011;4432;50.890;4.744;2023-01-10T15:46:16;0.63;;;0.63;;
8791;SDS011;4432;50.890;4.744;2023-01-10T15:51:36;0.70;;;0.70;;
8791;SDS011;4432;50.890;4.744;2023-01-10T15:54:04;1.23;;;0.50;;
8791;SDS011;4432;50.890;4.744;2023-01-10T15:56:50;1.17;;;0.87;;
8791;SDS011;4432;50.890;4.744;2023-01-10T15:59:40;1.07;;;0.70;;
8791;SDS011;4432;50.890;4.744;2023-01-10T16:04:49;0.43;;;0.43;;
8791;SDS011;4432;50.890;4.744;2023-01-10T16:09:50;0.83;;;0.77;;
8791;SDS011;4432;50.890;4.744;2023-01-10T16:12:27;0.70;;;0.70;;
8791;SDS011;4432;50.890;4.744;2023-01-10T16:15:15;0.60;;;0.60;;
8791;SDS011;4432;50.890;4.744;2023-01-10T16:17:46;0.50;;;0.50;;
8791;SDS011;4432;50.890;4.744;2023-01-10T16:20:16;0.90;;;0.70;;
8791;SDS011;4432;50.890;4.744;2023-01-10T16:22:44;0.60;;;0.60;;
8791;SDS011;4432;50.890;4.744;2023-01-10T16:25:13;0.57;;;0.57;;
8791;SDS011;4432;50.890;4.744;2023-01-10T16:27:41;0.60;;;0.60;;
8791;SDS011;4432;50.890;4.744;2023-01-10T16:30:21;0.60;;;0.60;;
8791;SDS011;4432;50.890;4.744;2023-01-10T16:32:47;0.60;;;0.60;;
8791;SDS011;4432;50.890;4.744;2023-01-10T16:35:13;1.90;;;0.67;;
8791;SDS011;4432;50.890;4.744;2023-01-10T16:37:40;0.50;;;0.50;;
8791;SDS011;4432;50.890;4.744;2023-01-10T16:40:26;0.50;;;0.50;;
8791;SDS011;4432;50.890;4.744;2023-01-10T16:42:53;1.30;;;0.53;;
8791;SDS011;4432;50.890;4.744;2023-01-10T16:45:38;4.07;;;0.60;;
8791;SDS011;4432;50.890;4.744;2023-01-10T16:48:05;0.70;;;0.70;;
8791;SDS011;4432;50.890;4.744;2023-01-10T16:50:31;0.93;;;0.60;;
8791;SDS011;4432;50.890;4.744;2023-01-10T16:52:57;0.57;;;0.57;;
8791;SDS011;4432;50.890;4.744;2023-01-10T16:55:31;1.30;;;0.50;;
8791;SDS011;4432;50.890;4.744;2023-01-10T16:58:17;0.80;;;0.80;;
8791;SDS011;4432;50.890;4.744;2023-01-10T17:00:44;0.60;;;0.60;;
8791;SDS011;4432;50.890;4.744;2023-01-10T17:03:14;1.80;;;0.70;;
8791;SDS011;4432;50.890;4.744;2023-01-10T17:05:44;1.83;;;0.60;;
8791;SDS011;4432;50.890;4.744;2023-01-10T17:08:14;0.77;;;0.70;;
8791;SDS011;4432;50.890;4.744;2023-01-10T17:10:47;0.97;;;0.97;;
8791;SDS011;4432;50.890;4.744;2023-01-10T17:13:20;1.43;;;0.70;;
8791;SDS011;4432;50.890;4.744;2023-01-10T17:15:49;0.50;;;0.50;;
8791;SDS011;4432;50.890;4.744;2023-01-10T17:18:15;0.47;;;0.47;;
8791;SDS011;4432;50.890;4.744;2023-01-10T17:20:41;0.70;;;0.50;;
8791;SDS011;4432;50.890;4.744;2023-01-10T17:23:08;0.80;;;0.80;;
8791;SDS011;4432;50.890;4.744;2023-01-10T17:25:36;0.70;;;0.63;;
8791;SDS011;4432;50.890;4.744;2023-01-10T17:28:01;0.60;;;0.60;;
8791;SDS011;4432;50.890;4.744;2023-01-10T17:30:27;0.60;;;0.60;;
8791;SDS011;4432;50.890;4.744;2023-01-10T17:32:53;0.80;;;0.80;;
8791;SDS011;4432;50.890;4.744;2023-01-10T17:35:19;0.73;;;0.70;;
8791;SDS011;4432;50.890;4.744;2023-01-10T17:37:49;0.80;;;0.80;;
8791;SDS011;4432;50.890;4.744;2023-01-10T17:40:15;0.77;;;0.63;;
8791;SDS011;4432;50.890;4.744;2023-01-10T17:42:41;2.03;;;0.90;;